createdAt,value
2023-01-03T00:01:19.468Z,1.88
2023-01-03T00:03:47.234Z,2.33
2023-01-03T00:06:18.040Z,2.10
2023-01-03T00:08:45.791Z,2.30
2023-01-03T00:11:14.069Z,2.20
2023-01-03T00:13:42.464Z,2.08
2023-01-03T00:16:15.848Z,2.15
2023-01-03T00:18:43.486Z,1.85
2023-01-03T00:21:11.183Z,2.20
2023-01-03T00:23:38.817Z,2.00
2023-01-03T00:26:10.026Z,2.42
2023-01-03T00:28:37.553Z,1.92
2023-01-03T00:31:08.384Z,2.17
2023-01-03T00:33:36.092Z,2.03
2023-01-03T00:36:03.993Z,2.13
2023-01-03T00:38:31.526Z,2.10
2023-01-03T00:41:04.610Z,2.10
2023-01-03T00:43:32.255Z,1.95
2023-01-03T00:46:00.173Z,1.98
2023-01-03T00:48:29.632Z,2.10
2023-01-03T00:50:57.224Z,2.90
2023-01-03T00:53:24.912Z,2.22
2023-01-03T00:55:52.631Z,2.10
2023-01-03T00:58:20.187Z,2.20
2023-01-03T01:00:47.748Z,4.55
2023-01-03T01:03:17.952Z,3.65
2023-01-03T01:05:47.166Z,3.38
2023-01-03T01:08:14.712Z,2.50
2023-01-03T01:11:01.643Z,2.78
2023-01-03T01:13:29.433Z,3.22
2023-01-03T01:15:57.032Z,2.80
2023-01-03T01:18:24.637Z,3.03
2023-01-03T01:20:53.863Z,2.80
2023-01-03T01:23:21.469Z,2.30
2023-01-03T01:25:48.974Z,3.67
2023-01-03T01:28:18.847Z,2.17
2023-01-03T01:30:46.397Z,1.95
2023-01-03T01:33:13.978Z,2.10
2023-01-03T01:35:41.559Z,2.20
2023-01-03T01:38:10.493Z,1.80
2023-01-03T01:40:38.072Z,1.90
2023-01-03T01:43:32.408Z,2.17
2023-01-03T01:46:00.707Z,1.90
2023-01-03T01:48:28.409Z,1.70
2023-01-03T01:50:57.083Z,1.80
2023-01-03T01:53:28.325Z,1.88
2023-01-03T01:55:58.065Z,2.00
2023-01-03T01:58:28.044Z,1.95
2023-01-03T02:00:56.256Z,1.90
2023-01-03T02:03:23.928Z,2.20
2023-01-03T02:05:52.813Z,2.20
2023-01-03T02:08:20.536Z,2.10
2023-01-03T02:10:59.143Z,2.10
2023-01-03T02:13:32.612Z,2.00
2023-01-03T02:16:12.120Z,1.73
2023-01-03T02:18:44.097Z,1.60
2023-01-03T02:21:38.673Z,1.90
2023-01-03T02:24:23.853Z,1.90
2023-01-03T02:27:02.378Z,1.88
2023-01-03T02:29:52.891Z,2.17
2023-01-03T02:32:25.043Z,1.90
2023-01-03T02:34:57.980Z,1.73
2023-01-03T02:37:30.293Z,1.85
2023-01-03T02:40:01.205Z,1.73
2023-01-03T02:42:51.226Z,1.60
2023-01-03T02:45:20.903Z,1.90
2023-01-03T02:47:51.571Z,1.85
2023-01-03T02:50:20.492Z,1.73
2023-01-03T02:52:51.168Z,1.60
2023-01-03T02:55:20.465Z,1.70
2023-01-03T02:57:50.528Z,1.60
2023-01-03T03:00:20.746Z,1.70
2023-01-03T03:02:51.819Z,1.80
2023-01-03T03:05:22.987Z,1.90
2023-01-03T03:07:50.646Z,1.70
2023-01-03T03:10:35.625Z,1.75
2023-01-03T03:13:14.717Z,1.83
2023-01-03T03:15:45.400Z,1.98
2023-01-03T03:18:20.560Z,1.75
2023-01-03T03:21:05.610Z,2.17
2023-01-03T03:23:53.093Z,2.20
2023-01-03T03:26:22.203Z,2.22
2023-01-03T03:28:50.779Z,2.42
2023-01-03T03:31:19.795Z,2.00
2023-01-03T03:33:50.283Z,2.13
2023-01-03T03:36:20.301Z,2.10
2023-01-03T03:38:47.889Z,2.00
2023-01-03T03:41:37.694Z,1.75
2023-01-03T03:44:26.626Z,1.95
2023-01-03T03:46:56.675Z,1.52
2023-01-03T03:49:41.730Z,1.63
2023-01-03T03:52:12.226Z,1.60
2023-01-03T03:54:40.524Z,1.50
2023-01-03T03:57:10.792Z,1.90
2023-01-03T03:59:39.071Z,2.53
2023-01-03T04:02:08.446Z,2.20
2023-01-03T04:04:39.738Z,2.13
2023-01-03T04:07:07.525Z,2.00
2023-01-03T04:09:35.419Z,2.00
2023-01-03T04:12:03.057Z,2.05
2023-01-03T04:14:30.690Z,2.35
2023-01-03T04:16:58.306Z,2.28
2023-01-03T04:19:25.893Z,1.90
2023-01-03T04:21:54.692Z,1.70
2023-01-03T04:24:22.601Z,1.75
2023-01-03T04:26:50.207Z,1.52
2023-01-03T04:29:18.275Z,1.80
2023-01-03T04:31:45.852Z,1.70
2023-01-03T04:34:13.479Z,1.60
2023-01-03T04:36:41.271Z,1.77
2023-01-03T04:39:10.257Z,1.85
2023-01-03T04:41:37.724Z,1.67
2023-01-03T04:44:04.871Z,2.20
2023-01-03T04:46:33.427Z,2.53
2023-01-03T04:49:00.968Z,2.10
2023-01-03T04:51:28.835Z,2.05
2023-01-03T04:53:56.342Z,2.10
2023-01-03T04:56:29.590Z,2.15
2023-01-03T04:58:57.240Z,2.00
2023-01-03T05:01:24.875Z,1.80
2023-01-03T05:03:52.978Z,2.00
2023-01-03T05:06:20.590Z,2.30
2023-01-03T05:08:48.569Z,2.28
2023-01-03T05:11:16.247Z,2.10
2023-01-03T05:13:45.157Z,2.07
2023-01-03T05:16:13.913Z,2.00
2023-01-03T05:18:42.233Z,2.30
2023-01-03T05:21:27.810Z,1.87
2023-01-03T05:24:12.671Z,2.33
2023-01-03T05:26:41.835Z,2.50
2023-01-03T05:29:11.411Z,2.40
2023-01-03T05:31:39.070Z,2.40
2023-01-03T05:34:06.733Z,2.80
2023-01-03T05:36:34.328Z,2.35
2023-01-03T05:39:01.901Z,2.50
2023-01-03T05:41:47.034Z,2.58
2023-01-03T05:44:19.011Z,2.72
2023-01-03T05:46:46.421Z,2.90
2023-01-03T05:49:13.854Z,3.30
2023-01-03T05:51:41.343Z,2.63
2023-01-03T05:54:08.830Z,2.90
2023-01-03T05:56:36.423Z,3.78
2023-01-03T05:59:04.193Z,4.03
2023-01-03T06:01:33.089Z,3.73
2023-01-03T06:04:00.794Z,3.83
2023-01-03T06:06:28.219Z,4.30
2023-01-03T06:08:55.667Z,5.45
2023-01-03T06:11:23.193Z,4.87
2023-01-03T06:13:50.611Z,4.05
2023-01-03T06:16:37.781Z,5.10
2023-01-03T06:19:07.885Z,4.50
2023-01-03T06:21:35.371Z,5.90
2023-01-03T06:24:03.166Z,5.13
2023-01-03T06:26:30.628Z,7.87
2023-01-03T06:28:58.056Z,10.00
2023-01-03T06:31:25.639Z,11.30
2023-01-03T06:33:53.178Z,8.93
2023-01-03T06:36:22.759Z,4.27
2023-01-03T06:38:50.329Z,5.05
2023-01-03T06:41:17.920Z,4.63
2023-01-03T06:43:45.422Z,6.07
2023-01-03T06:46:31.000Z,8.33
2023-01-03T06:49:16.196Z,7.70
2023-01-03T06:52:02.680Z,8.63
2023-01-03T06:54:30.961Z,13.30
2023-01-03T06:56:58.520Z,15.47
2023-01-03T06:59:26.447Z,17.60
2023-01-03T07:01:54.828Z,15.40
2023-01-03T07:04:23.459Z,10.43
2023-01-03T07:06:52.488Z,8.27
2023-01-03T07:09:20.022Z,6.20
2023-01-03T07:11:47.505Z,5.27
2023-01-03T07:14:14.032Z,5.63
2023-01-03T07:16:42.459Z,6.10
2023-01-03T07:19:12.391Z,4.77
2023-01-03T07:21:40.058Z,4.80
2023-01-03T07:24:09.447Z,8.33
2023-01-03T07:26:38.524Z,8.03
2023-01-03T07:29:06.587Z,8.67
2023-01-03T07:31:34.282Z,8.83
2023-01-03T07:34:02.165Z,8.43
2023-01-03T07:36:29.555Z,8.60
2023-01-03T07:38:57.046Z,8.03
2023-01-03T07:41:46.357Z,6.07
2023-01-03T07:44:12.887Z,6.80
2023-01-03T07:46:40.433Z,7.20
2023-01-03T07:49:11.507Z,6.50
2023-01-03T07:51:39.897Z,5.33
2023-01-03T07:54:07.684Z,5.50
2023-01-03T07:56:38.984Z,5.23
2023-01-03T07:59:16.854Z,5.37
2023-01-03T08:01:46.624Z,5.73
2023-01-03T08:04:14.254Z,5.47
2023-01-03T08:06:44.489Z,7.43
2023-01-03T08:09:35.034Z,5.87
2023-01-03T08:12:21.517Z,8.43
2023-01-03T08:14:48.942Z,6.83
2023-01-03T08:17:22.439Z,6.60
2023-01-03T08:19:49.922Z,6.43
2023-01-03T08:22:17.409Z,5.47
2023-01-03T08:24:44.894Z,5.70
2023-01-03T08:27:13.710Z,5.78
2023-01-03T08:29:41.293Z,5.70
2023-01-03T08:32:08.822Z,6.22
2023-01-03T08:34:38.638Z,6.57
2023-01-03T08:37:11.051Z,6.70
2023-01-03T08:39:39.828Z,6.30
2023-01-03T08:42:08.396Z,7.40
2023-01-03T08:44:37.504Z,6.47
2023-01-03T08:47:08.126Z,4.93
2023-01-03T08:49:36.128Z,5.30
2023-01-03T08:52:04.969Z,4.90
2023-01-03T08:54:36.085Z,5.20
2023-01-03T08:57:07.110Z,4.90
2023-01-03T08:59:34.929Z,4.53
2023-01-03T09:02:13.756Z,4.90
2023-01-03T09:04:41.413Z,4.68
2023-01-03T09:07:08.842Z,5.22
2023-01-03T09:09:39.061Z,5.80
2023-01-03T09:12:06.777Z,5.20
2023-01-03T09:14:34.304Z,5.00
2023-01-03T09:17:01.948Z,4.97
2023-01-03T09:19:30.785Z,5.30
2023-01-03T09:21:58.300Z,4.65
2023-01-03T09:24:25.761Z,4.32
2023-01-03T09:26:54.924Z,4.30
2023-01-03T09:29:22.593Z,4.57
2023-01-03T09:31:51.465Z,4.03
2023-01-03T09:34:19.270Z,4.40
2023-01-03T09:36:48.227Z,4.20
2023-01-03T09:39:16.393Z,4.50
2023-01-03T09:41:44.562Z,4.18
2023-01-03T09:44:12.939Z,3.72
2023-01-03T09:46:40.753Z,4.82
2023-01-03T09:49:08.207Z,5.78
2023-01-03T09:51:54.111Z,4.47
2023-01-03T09:54:43.528Z,4.20
2023-01-03T09:57:30.394Z,4.53
2023-01-03T10:00:15.516Z,4.55
2023-01-03T10:03:13.158Z,3.90
2023-01-03T10:05:48.309Z,3.83
2023-01-03T10:08:22.580Z,3.67
2023-01-03T10:10:55.650Z,3.20
2023-01-03T10:13:28.327Z,3.42
2023-01-03T10:16:01.416Z,3.50
2023-01-03T10:18:35.754Z,3.65
2023-01-03T10:21:07.735Z,3.67
2023-01-03T10:23:35.607Z,3.58
2023-01-03T10:26:09.456Z,3.72
2023-01-03T10:28:40.935Z,3.80
2023-01-03T10:31:17.321Z,3.50
2023-01-03T10:33:46.221Z,3.67
2023-01-03T10:36:14.048Z,3.58
2023-01-03T10:38:51.539Z,3.65
2023-01-03T10:41:24.538Z,3.70
2023-01-03T10:43:57.668Z,3.83
2023-01-03T10:46:27.872Z,3.72
2023-01-03T10:49:26.599Z,3.60
2023-01-03T10:51:49.182Z,3.88
2023-01-03T10:54:24.571Z,3.78
2023-01-03T10:56:57.354Z,4.15
2023-01-03T10:59:27.033Z,4.20
2023-01-03T11:02:02.228Z,3.67
2023-01-03T11:04:31.447Z,3.90
2023-01-03T11:07:00.619Z,4.00
2023-01-03T11:09:30.030Z,3.90
2023-01-03T11:12:03.899Z,3.97
2023-01-03T11:14:31.679Z,4.00
2023-01-03T11:17:00.681Z,3.67
2023-01-03T11:19:29.532Z,3.80
2023-01-03T11:22:02.447Z,3.55
2023-01-03T11:24:37.470Z,3.60
2023-01-03T11:27:12.993Z,3.90
2023-01-03T11:29:59.126Z,3.60
2023-01-03T11:32:35.029Z,3.42
2023-01-03T11:35:24.333Z,3.33
2023-01-03T11:38:14.776Z,3.25
2023-01-03T11:40:45.526Z,3.55
2023-01-03T11:43:20.948Z,3.30
2023-01-03T11:45:57.252Z,3.15
2023-01-03T11:48:43.355Z,3.33
2023-01-03T11:51:15.502Z,2.80
2023-01-03T11:53:49.767Z,3.00
2023-01-03T11:56:23.330Z,2.33
2023-01-03T11:59:01.415Z,3.00
2023-01-03T12:01:39.311Z,2.75
2023-01-03T12:04:11.678Z,2.28
2023-01-03T12:06:42.972Z,2.50
2023-01-03T12:09:15.105Z,2.95
2023-01-03T12:11:56.774Z,2.58
2023-01-03T12:14:26.676Z,2.00
2023-01-03T12:16:57.420Z,1.60
2023-01-03T12:19:27.902Z,2.50
2023-01-03T12:21:58.010Z,1.48
2023-01-03T12:24:30.379Z,1.30
2023-01-03T12:27:03.123Z,1.38
2023-01-03T12:29:35.591Z,1.83
2023-01-03T12:32:04.108Z,1.58
2023-01-03T12:34:44.104Z,1.40
2023-01-03T12:37:15.829Z,1.88
2023-01-03T12:39:48.814Z,1.23
2023-01-03T12:42:20.718Z,1.20
2023-01-03T12:44:52.772Z,1.42
2023-01-03T12:47:26.728Z,1.83
2023-01-03T12:49:57.955Z,1.58
2023-01-03T12:52:26.631Z,1.33
2023-01-03T12:54:57.997Z,1.45
2023-01-03T12:57:37.354Z,1.30
2023-01-03T13:00:17.264Z,1.30
2023-01-03T13:02:48.347Z,1.27
2023-01-03T13:05:18.455Z,1.25
2023-01-03T13:07:48.761Z,1.30
2023-01-03T13:10:18.265Z,1.60
2023-01-03T13:12:49.252Z,1.50
2023-01-03T13:15:27.344Z,1.50
2023-01-03T13:18:16.757Z,1.50
2023-01-03T13:20:50.005Z,1.70
2023-01-03T13:23:31.511Z,1.80
2023-01-03T13:26:18.023Z,1.50
2023-01-03T13:28:45.733Z,1.67
2023-01-03T13:31:47.459Z,1.50
2023-01-03T13:34:18.270Z,1.65
2023-01-03T13:37:00.705Z,1.45
2023-01-03T13:39:32.016Z,2.00
2023-01-03T13:41:59.614Z,1.80
2023-01-03T13:44:27.192Z,2.03
2023-01-03T13:46:54.955Z,1.80
2023-01-03T13:49:24.810Z,1.70
2023-01-03T13:51:52.851Z,1.35
2023-01-03T13:54:39.318Z,1.50
2023-01-03T13:57:27.686Z,1.70
2023-01-03T13:59:55.807Z,1.70
2023-01-03T14:02:38.370Z,1.67
2023-01-03T14:05:28.247Z,1.65
2023-01-03T14:08:06.667Z,1.90
2023-01-03T14:10:41.356Z,1.73
2023-01-03T14:13:29.438Z,1.70
2023-01-03T14:16:07.936Z,1.40
2023-01-03T14:18:36.046Z,1.73
2023-01-03T14:21:11.914Z,2.08
2023-01-03T14:24:01.539Z,1.77
2023-01-03T14:26:32.384Z,3.63
2023-01-03T14:29:00.411Z,7.95
2023-01-03T14:31:28.663Z,15.18
2023-01-03T14:33:58.038Z,19.30
2023-01-03T14:36:27.112Z,14.18
2023-01-03T14:38:55.535Z,11.30
2023-01-03T14:41:33.537Z,10.73
2023-01-03T14:44:02.065Z,11.90
2023-01-03T14:46:30.622Z,7.72
2023-01-03T14:49:03.118Z,4.35
2023-01-03T14:51:34.037Z,6.50
2023-01-03T14:54:01.888Z,4.63
2023-01-03T14:56:29.721Z,4.88
2023-01-03T14:58:57.992Z,2.88
2023-01-03T15:01:27.042Z,3.25
2023-01-03T15:03:55.765Z,2.97
2023-01-03T15:06:24.284Z,3.20
2023-01-03T15:08:54.141Z,3.25
2023-01-03T15:11:23.311Z,3.67
2023-01-03T15:13:54.214Z,2.72
2023-01-03T15:16:24.365Z,2.67
2023-01-03T15:18:52.155Z,2.50
2023-01-03T15:21:21.902Z,3.10
2023-01-03T15:23:52.357Z,3.58
2023-01-03T15:26:22.559Z,4.50
2023-01-03T15:28:53.200Z,4.35
2023-01-03T15:31:31.055Z,5.18
2023-01-03T15:34:12.203Z,15.20
2023-01-03T15:36:39.966Z,9.77
2023-01-03T15:39:08.993Z,6.70
2023-01-03T15:42:12.709Z,6.32
2023-01-03T15:44:44.888Z,6.18
2023-01-03T15:47:17.221Z,6.60
2023-01-03T15:49:46.735Z,5.68
2023-01-03T15:52:14.575Z,5.63
2023-01-03T15:54:42.530Z,5.25
2023-01-03T15:57:14.151Z,5.05
2023-01-03T15:59:43.664Z,4.70
2023-01-03T16:02:15.742Z,3.40
2023-01-03T16:04:43.722Z,2.88
2023-01-03T16:07:11.677Z,3.10
2023-01-03T16:09:39.233Z,2.90
2023-01-03T16:12:07.712Z,3.25
2023-01-03T16:14:38.510Z,3.55
2023-01-03T16:17:06.699Z,3.13
2023-01-03T16:19:35.878Z,3.10
2023-01-03T16:24:52.081Z,6.38
2023-01-03T16:27:20.427Z,4.50
2023-01-03T16:29:49.539Z,5.10
2023-01-03T16:32:19.656Z,3.42
2023-01-03T16:34:47.610Z,5.63
2023-01-03T16:37:15.692Z,7.10
2023-01-03T16:39:48.040Z,7.70
2023-01-03T16:42:16.111Z,6.18
2023-01-03T16:44:45.140Z,6.38
2023-01-03T16:47:15.597Z,6.32
2023-01-03T16:49:44.427Z,8.00
2023-01-03T16:52:14.735Z,10.75
2023-01-03T16:54:43.051Z,8.90
2023-01-03T16:57:13.058Z,7.53
2023-01-03T16:59:40.622Z,6.43
2023-01-03T17:02:08.487Z,5.85
2023-01-03T17:04:37.634Z,6.97
2023-01-03T17:07:05.459Z,6.65
2023-01-03T17:09:35.956Z,5.80
2023-01-03T17:12:04.128Z,4.60
2023-01-03T17:14:32.754Z,6.28
2023-01-03T17:17:00.516Z,6.20
2023-01-03T17:20:03.498Z,5.70
2023-01-03T17:22:18.905Z,5.82
2023-01-03T17:24:47.418Z,6.15
2023-01-03T17:27:16.714Z,6.93
2023-01-03T17:29:44.464Z,5.72
2023-01-03T17:32:16.341Z,6.63
2023-01-03T17:34:43.858Z,5.25
2023-01-03T17:37:15.272Z,5.13
2023-01-03T17:39:44.451Z,6.10
2023-01-03T17:42:16.495Z,5.65
2023-01-03T17:44:44.524Z,5.80
2023-01-03T17:47:38.291Z,5.20
2023-01-03T17:50:06.235Z,5.95
2023-01-03T17:52:34.912Z,5.83
2023-01-03T17:55:04.466Z,6.83
2023-01-03T17:57:32.507Z,6.87
2023-01-03T18:00:00.288Z,8.00
2023-01-03T18:02:30.109Z,7.83
2023-01-03T18:07:45.573Z,8.47
2023-01-03T18:10:17.129Z,7.83
2023-01-03T18:12:44.876Z,7.93
2023-01-03T18:15:16.183Z,6.33
2023-01-03T18:17:43.748Z,7.20
2023-01-03T18:20:12.951Z,6.50
2023-01-03T18:22:40.794Z,7.80
2023-01-03T18:25:14.161Z,6.90
2023-01-03T18:27:50.086Z,7.50
2023-01-03T18:30:17.761Z,7.27
2023-01-03T18:32:45.282Z,6.77
2023-01-03T18:35:18.244Z,6.03
2023-01-03T18:37:50.724Z,6.22
2023-01-03T18:40:19.803Z,5.87
2023-01-03T18:43:06.741Z,7.40
2023-01-03T18:45:34.418Z,6.80
2023-01-03T18:48:01.968Z,7.10
2023-01-03T18:50:29.654Z,6.83
2023-01-03T18:52:59.807Z,6.57
2023-01-03T18:55:28.041Z,6.57
2023-01-03T18:57:59.185Z,7.53
2023-01-03T19:00:27.271Z,7.80
2023-01-03T19:02:54.961Z,8.17
2023-01-03T19:05:22.525Z,7.77
2023-01-03T19:07:53.363Z,8.20
2023-01-03T19:10:22.533Z,7.87
2023-01-03T19:12:51.283Z,7.90
2023-01-03T19:15:21.334Z,8.17
2023-01-03T19:17:48.889Z,8.27
2023-01-03T19:20:21.764Z,7.73
2023-01-03T19:22:54.148Z,7.20
2023-01-03T19:25:25.033Z,7.27
2023-01-03T19:27:53.789Z,7.37
2023-01-03T19:30:27.229Z,8.20
2023-01-03T19:32:57.950Z,8.47
2023-01-03T19:35:25.471Z,9.40
2023-01-03T19:37:54.951Z,9.20
2023-01-03T19:40:23.987Z,9.33
2023-01-03T19:42:52.620Z,9.53
2023-01-03T19:45:23.061Z,9.13
2023-01-03T19:47:50.489Z,8.20
2023-01-03T19:50:19.291Z,8.40
2023-01-03T19:52:47.443Z,8.37
2023-01-03T19:55:15.005Z,9.07
2023-01-03T19:57:44.700Z,9.53
2023-01-03T20:00:17.437Z,10.00
2023-01-03T20:02:52.039Z,9.27
2023-01-03T20:05:20.619Z,10.23
2023-01-03T20:07:48.287Z,12.57
2023-01-03T20:10:17.048Z,11.73
2023-01-03T20:12:44.828Z,10.33
2023-01-03T20:15:19.808Z,9.93
2023-01-03T20:17:48.759Z,9.47
2023-01-03T20:20:16.720Z,9.83
2023-01-03T20:25:33.714Z,9.57
2023-01-03T20:28:01.906Z,9.73
2023-01-03T20:30:30.200Z,9.50
2023-01-03T20:32:59.259Z,10.37
2023-01-03T20:38:17.021Z,13.10
2023-01-03T20:40:44.640Z,13.47
2023-01-03T20:43:14.136Z,11.17
2023-01-03T20:45:41.707Z,12.03
2023-01-03T20:48:15.888Z,11.47
2023-01-03T20:50:46.983Z,11.33
2023-01-03T20:53:17.027Z,10.37
2023-01-03T20:55:44.666Z,11.00
2023-01-03T20:58:14.053Z,11.17
2023-01-03T21:00:42.132Z,10.07
2023-01-03T21:03:09.975Z,9.83
2023-01-03T21:05:39.124Z,10.17
2023-01-03T21:08:24.834Z,10.30
2023-01-03T21:10:53.772Z,10.50
2023-01-03T21:13:21.897Z,10.30
2023-01-03T21:15:50.150Z,10.60
2023-01-03T21:18:18.020Z,10.80
2023-01-03T21:20:47.198Z,9.77
2023-01-03T21:23:17.687Z,10.73
2023-01-03T21:25:45.609Z,9.80
2023-01-03T21:28:13.607Z,10.90
2023-01-03T21:30:41.166Z,10.37
2023-01-03T21:33:14.305Z,9.43
2023-01-03T21:35:41.994Z,10.50
2023-01-03T21:38:11.267Z,10.20
2023-01-03T21:40:39.054Z,12.13
2023-01-03T21:43:06.744Z,10.93
2023-01-03T21:45:35.248Z,10.57
2023-01-03T21:48:03.728Z,9.83
2023-01-03T21:50:31.621Z,10.50
2023-01-03T21:52:59.428Z,10.37
2023-01-03T21:55:30.728Z,11.80
2023-01-03T21:57:58.348Z,12.97
2023-01-03T22:00:29.013Z,11.47
2023-01-03T22:03:13.969Z,10.83
2023-01-03T22:05:41.590Z,11.00
2023-01-03T22:08:09.372Z,11.57
2023-01-03T22:10:38.548Z,11.10
2023-01-03T22:13:07.198Z,15.10
2023-01-03T22:15:36.535Z,9.93
2023-01-03T22:18:06.001Z,10.37
2023-01-03T22:20:38.186Z,11.30
2023-01-03T22:23:06.971Z,11.03
2023-01-03T22:25:34.499Z,11.40
2023-01-03T22:28:03.610Z,10.63
2023-01-03T22:30:31.332Z,10.57
2023-01-03T22:32:59.261Z,11.33
2023-01-03T22:35:27.017Z,10.57
2023-01-03T22:37:56.096Z,9.80
2023-01-03T22:40:23.682Z,10.27
2023-01-03T22:42:51.465Z,9.87
2023-01-03T22:45:20.421Z,9.57
2023-01-03T22:47:47.967Z,9.50
2023-01-03T22:50:15.519Z,10.07
2023-01-03T22:52:43.082Z,10.67
2023-01-03T22:55:11.701Z,9.40
2023-01-03T22:57:39.225Z,9.60
2023-01-03T23:00:10.517Z,10.37
2023-01-03T23:02:42.115Z,9.27
2023-01-03T23:05:10.229Z,9.63
2023-01-03T23:07:39.412Z,9.80
2023-01-03T23:10:07.789Z,9.40
2023-01-03T23:12:53.014Z,8.77
2023-01-03T23:15:20.588Z,9.10
2023-01-03T23:17:58.403Z,9.07
2023-01-03T23:20:27.168Z,9.40
2023-01-03T23:22:59.580Z,8.70
2023-01-03T23:25:28.315Z,9.73
2023-01-03T23:27:55.810Z,8.57
2023-01-03T23:30:23.390Z,10.50
2023-01-03T23:32:52.491Z,9.57
2023-01-03T23:35:20.147Z,9.00
2023-01-03T23:37:48.412Z,9.13
2023-01-03T23:40:16.454Z,9.43
2023-01-03T23:42:44.185Z,9.53
2023-01-03T23:45:11.895Z,9.80
2023-01-03T23:47:39.451Z,9.17
2023-01-03T23:50:08.717Z,9.73
2023-01-03T23:52:36.331Z,10.13
2023-01-03T23:55:11.998Z,11.03
2023-01-03T23:57:40.318Z,9.77
